Startpagina
METAR-TAF:

METAR-TAF

Vliegvelden :

Villavicencio, Colombia

breedte: 04-10N, lengte: 073-37W, hoogte: 423 m

Actueel weer

Dit bericht is 3 uur en het 28 minuten geleden gemaakt, om 05:00 UTC
Weinig wind
Temperatuur 23°C
Vochtigheid 94%
Druk 1013 hPa
Zicht 10 km of meer
Weinig wolken op 2000 ft
Verspreide wolken op 9000 ft

METAR: SKVV 210500Z 00000KT 9999 FEW020 SCT090 23/22 A2991

Tijdstip: 03:28 (08:28 UTC)


TAF: ontbreekt

Waarnemingen en weersverwachtingen van meer dan 4000 vliegvelden (METAR en TAF).

De beschikbare stations zijn de gele en rode punten op de kaart.

Ga met uw muis naar het station om de naam te zien.

Klik dan om waarnemingen en weersverwachtingen te zien.

kaart wijzigen: klik op de groene knoppen met een zwart kruis om in te zoomen, op de groene knop met een streepje om uit te zoomen of op de groene pijlen voor aangrenzende kaarten.


METAR-TAF: